createdAt,value
2022-08-25T00:02:14.395Z,10.63
2022-08-25T00:04:42.800Z,11.40
2022-08-25T00:07:12.266Z,12.65
2022-08-25T00:09:45.735Z,18.95
2022-08-25T00:12:12.745Z,12.73
2022-08-25T00:14:39.609Z,11.23
2022-08-25T00:17:06.850Z,13.45
2022-08-25T00:19:36.930Z,11.80
2022-08-25T00:22:05.654Z,12.43
2022-08-25T00:24:32.555Z,13.57
2022-08-25T00:27:00.348Z,11.68
2022-08-25T00:29:28.102Z,11.53
2022-08-25T00:31:56.644Z,11.63
2022-08-25T00:34:27.161Z,11.37
2022-08-25T00:36:54.549Z,12.13
2022-08-25T00:39:22.832Z,11.50
2022-08-25T00:41:52.758Z,12.43
2022-08-25T00:44:20.310Z,12.13
2022-08-25T00:46:51.166Z,12.80
2022-08-25T00:49:25.750Z,12.00
2022-08-25T00:51:58.563Z,13.27
2022-08-25T00:54:35.573Z,13.67
2022-08-25T00:57:05.003Z,13.23
2022-08-25T00:59:32.592Z,18.90
2022-08-25T01:02:00.208Z,14.70
2022-08-25T01:04:27.582Z,12.70
2022-08-25T01:06:55.838Z,12.53
2022-08-25T01:09:22.928Z,13.10
2022-08-25T01:11:49.946Z,13.33
2022-08-25T01:14:20.152Z,14.03
2022-08-25T01:16:51.063Z,13.07
2022-08-25T01:19:21.385Z,12.40
2022-08-25T01:21:50.506Z,13.70
2022-08-25T01:24:31.418Z,14.87
2022-08-25T01:26:58.911Z,13.63
2022-08-25T01:29:25.952Z,14.17
2022-08-25T01:31:57.701Z,15.30
2022-08-25T01:34:30.343Z,14.17
2022-08-25T01:36:59.552Z,16.03
2022-08-25T01:39:29.329Z,14.03
2022-08-25T01:42:34.659Z,14.77
2022-08-25T01:45:01.662Z,14.40
2022-08-25T01:47:28.533Z,13.67
2022-08-25T01:49:56.047Z,13.87
2022-08-25T01:52:45.120Z,14.10
2022-08-25T01:55:12.036Z,14.87
2022-08-25T01:57:38.861Z,13.93
2022-08-25T02:00:08.750Z,15.53
2022-08-25T02:02:35.570Z,15.17
2022-08-25T02:05:02.980Z,13.80
2022-08-25T02:07:29.913Z,14.97
2022-08-25T02:09:56.938Z,14.03
2022-08-25T02:12:26.598Z,15.10
2022-08-25T02:14:53.402Z,14.40
2022-08-25T02:17:20.228Z,15.20
2022-08-25T02:19:47.074Z,13.47
2022-08-25T02:22:13.892Z,15.03
2022-08-25T02:24:40.747Z,14.47
2022-08-25T02:27:08.261Z,14.37
2022-08-25T02:29:35.037Z,15.80
2022-08-25T02:32:03.047Z,16.00
2022-08-25T02:34:29.989Z,17.30
2022-08-25T02:36:56.887Z,14.73
2022-08-25T02:39:23.695Z,14.53
2022-08-25T02:41:50.511Z,14.63
2022-08-25T02:44:17.787Z,15.73
2022-08-25T02:46:44.581Z,17.40
2022-08-25T02:49:11.453Z,18.27
2022-08-25T02:51:38.879Z,15.10
2022-08-25T02:54:06.090Z,14.97
2022-08-25T02:56:33.109Z,14.93
2022-08-25T02:59:01.893Z,15.90
2022-08-25T03:01:29.336Z,17.00
2022-08-25T03:03:57.516Z,16.33
2022-08-25T03:06:25.121Z,16.27
2022-08-25T03:08:53.177Z,16.73
2022-08-25T03:11:20.945Z,15.77
2022-08-25T03:13:51.176Z,15.87
2022-08-25T03:16:27.801Z,15.80
2022-08-25T03:18:55.414Z,17.63
2022-08-25T03:21:23.005Z,16.17
2022-08-25T03:23:49.848Z,17.17
2022-08-25T03:26:35.533Z,14.37
2022-08-25T03:29:05.629Z,16.93
2022-08-25T03:31:34.462Z,15.50
2022-08-25T03:34:01.708Z,15.97
2022-08-25T03:36:29.022Z,18.07
2022-08-25T03:38:56.111Z,16.10
2022-08-25T03:41:27.950Z,16.47
2022-08-25T03:43:56.568Z,16.53
2022-08-25T03:46:29.062Z,17.77
2022-08-25T03:48:56.718Z,16.40
2022-08-25T03:51:35.554Z,16.10
2022-08-25T03:54:04.603Z,17.67
2022-08-25T03:56:31.693Z,16.53
2022-08-25T03:58:59.287Z,16.70
2022-08-25T04:01:26.680Z,17.03
2022-08-25T04:03:56.636Z,16.17
2022-08-25T04:06:23.590Z,16.00
2022-08-25T04:08:52.741Z,16.83
2022-08-25T04:11:22.260Z,16.83
2022-08-25T04:13:51.919Z,16.77
2022-08-25T04:16:29.714Z,16.30
2022-08-25T04:18:57.508Z,17.07
2022-08-25T04:21:25.450Z,17.03
2022-08-25T04:23:56.566Z,19.60
2022-08-25T04:26:36.726Z,17.07
2022-08-25T04:29:05.657Z,17.00
2022-08-25T04:31:33.439Z,17.73
2022-08-25T04:34:03.733Z,16.83
2022-08-25T04:36:31.238Z,18.07
2022-08-25T04:38:58.190Z,18.43
2022-08-25T04:41:25.924Z,17.90
2022-08-25T04:43:53.455Z,17.37
2022-08-25T04:46:23.891Z,18.93
2022-08-25T04:48:52.748Z,17.90
2022-08-25T04:51:26.251Z,21.40
2022-08-25T04:54:00.016Z,18.77
2022-08-25T04:56:28.181Z,20.33
2022-08-25T04:58:55.829Z,17.83
2022-08-25T05:01:25.068Z,17.63
2022-08-25T05:04:01.939Z,17.73
2022-08-25T05:06:30.074Z,20.87
2022-08-25T05:08:58.229Z,19.77
2022-08-25T05:11:26.009Z,16.87
2022-08-25T05:13:55.382Z,16.83
2022-08-25T05:16:23.891Z,17.63
2022-08-25T05:18:51.063Z,17.90
2022-08-25T05:21:21.826Z,17.47
2022-08-25T05:23:49.041Z,19.50
2022-08-25T05:26:21.990Z,18.53
2022-08-25T05:28:50.634Z,19.33
2022-08-25T05:31:18.536Z,19.20
2022-08-25T05:33:45.549Z,18.00
2022-08-25T05:36:13.791Z,19.37
2022-08-25T05:38:41.842Z,16.30
2022-08-25T05:41:11.710Z,18.47
2022-08-25T05:43:40.348Z,19.60
2022-08-25T05:46:08.400Z,18.27
2022-08-25T05:48:35.900Z,19.63
2022-08-25T05:51:04.941Z,18.33
2022-08-25T05:53:33.950Z,17.77
2022-08-25T05:56:01.802Z,18.40
2022-08-25T05:58:30.037Z,20.57
2022-08-25T06:01:18.813Z,17.42
2022-08-25T06:03:47.641Z,17.08
2022-08-25T06:06:16.149Z,17.17
2022-08-25T06:08:44.516Z,16.95
2022-08-25T06:11:13.405Z,16.10
2022-08-25T06:13:40.723Z,17.73
2022-08-25T06:16:08.255Z,16.75
2022-08-25T06:18:35.218Z,15.95
2022-08-25T06:21:14.206Z,17.05
2022-08-25T06:23:41.919Z,16.52
2022-08-25T06:26:19.072Z,17.58
2022-08-25T06:28:52.212Z,16.95
2022-08-25T06:31:22.397Z,19.15
2022-08-25T06:33:50.329Z,16.27
2022-08-25T06:36:17.692Z,16.92
2022-08-25T06:38:44.731Z,17.00
2022-08-25T06:41:12.539Z,20.45
2022-08-25T06:43:47.326Z,17.58
2022-08-25T06:46:20.248Z,17.13
2022-08-25T06:48:47.606Z,18.23
2022-08-25T06:51:17.489Z,18.13
2022-08-25T06:53:49.060Z,18.42
2022-08-25T06:56:18.102Z,19.88
2022-08-25T06:58:45.269Z,16.20
2022-08-25T07:01:19.587Z,18.05
2022-08-25T07:03:48.066Z,16.77
2022-08-25T07:06:18.640Z,17.58
2022-08-25T07:08:46.705Z,17.13
2022-08-25T07:11:16.636Z,16.33
2022-08-25T07:13:45.636Z,18.60
2022-08-25T07:16:15.403Z,18.75
2022-08-25T07:18:47.242Z,17.08
2022-08-25T07:21:14.368Z,16.65
2022-08-25T07:23:42.113Z,16.05
2022-08-25T07:26:36.312Z,15.30
2022-08-25T07:29:04.830Z,18.05
2022-08-25T07:31:32.673Z,14.57
2022-08-25T07:34:17.954Z,17.38
2022-08-25T07:36:45.029Z,15.07
2022-08-25T07:39:12.014Z,12.75
2022-08-25T07:41:41.522Z,14.18
2022-08-25T07:44:10.467Z,14.02
2022-08-25T07:46:38.004Z,11.23
2022-08-25T07:49:05.431Z,11.52
2022-08-25T07:52:04.023Z,12.73
2022-08-25T07:54:34.583Z,12.85
2022-08-25T07:57:03.595Z,12.70
2022-08-25T07:59:31.074Z,12.05
2022-08-25T08:02:18.390Z,11.18
2022-08-25T08:04:48.832Z,9.77
2022-08-25T08:07:41.850Z,11.60
2022-08-25T08:10:42.227Z,10.15
2022-08-25T08:12:59.737Z,10.07
2022-08-25T08:15:29.747Z,10.35
2022-08-25T08:18:00.386Z,9.88
2022-08-25T08:20:28.991Z,11.02
2022-08-25T08:22:55.955Z,10.00
2022-08-25T08:25:27.556Z,9.77
2022-08-25T08:27:56.214Z,10.98
2022-08-25T08:30:26.359Z,10.65
2022-08-25T08:33:09.218Z,10.43
2022-08-25T08:35:38.040Z,10.55
2022-08-25T08:38:14.624Z,13.95
2022-08-25T08:41:27.359Z,9.40
2022-08-25T08:44:08.069Z,12.93
2022-08-25T08:46:47.219Z,11.02
2022-08-25T08:49:35.490Z,9.43
2022-08-25T08:52:04.649Z,9.95
2022-08-25T08:54:38.405Z,8.35
2022-08-25T08:57:19.666Z,9.65
2022-08-25T08:59:52.074Z,9.27
2022-08-25T09:02:39.104Z,14.90
2022-08-25T09:05:21.118Z,10.32
2022-08-25T09:07:54.916Z,10.13
2022-08-25T09:10:24.472Z,10.85
2022-08-25T09:13:20.326Z,11.30
2022-08-25T09:16:34.163Z,8.82
2022-08-25T09:19:11.894Z,8.02
2022-08-25T09:22:02.211Z,8.43
2022-08-25T09:24:32.104Z,8.00
2022-08-25T09:27:00.707Z,7.57
2022-08-25T09:29:35.682Z,7.97
2022-08-25T09:32:07.795Z,8.13
2022-08-25T09:34:35.981Z,7.28
2022-08-25T09:37:03.015Z,8.32
2022-08-25T09:39:31.080Z,7.45
2022-08-25T09:42:00.363Z,8.23
2022-08-25T09:44:41.349Z,8.60
2022-08-25T09:47:14.130Z,7.70
2022-08-25T09:49:44.390Z,7.25
2022-08-25T09:52:41.370Z,7.38
2022-08-25T09:55:08.689Z,7.80
2022-08-25T09:57:43.200Z,8.40
2022-08-25T10:00:34.075Z,6.70
2022-08-25T10:03:07.557Z,8.32
2022-08-25T10:05:39.339Z,6.65
2022-08-25T10:08:35.183Z,7.13
2022-08-25T10:11:08.690Z,7.63
2022-08-25T10:13:38.310Z,7.47
2022-08-25T10:16:20.390Z,6.15
2022-08-25T10:19:24.144Z,6.90
2022-08-25T10:22:11.175Z,6.15
2022-08-25T10:24:41.015Z,5.97
2022-08-25T10:27:16.848Z,6.32
2022-08-25T10:29:55.294Z,6.82
2022-08-25T10:32:37.961Z,8.20
2022-08-25T10:35:13.367Z,6.55
2022-08-25T10:38:00.008Z,6.30
2022-08-25T10:40:33.144Z,6.35
2022-08-25T10:43:31.732Z,8.25
2022-08-25T10:46:21.125Z,6.45
2022-08-25T10:48:57.393Z,5.90
2022-08-25T10:51:41.227Z,6.25
2022-08-25T10:54:41.689Z,6.57
2022-08-25T10:57:32.453Z,8.07
2022-08-25T11:00:06.667Z,6.18
2022-08-25T11:02:45.031Z,5.75
2022-08-25T11:05:27.036Z,5.88
2022-08-25T11:08:07.597Z,6.07
2022-08-25T11:10:48.702Z,7.00
2022-08-25T11:13:36.885Z,8.82
2022-08-25T11:16:17.478Z,6.13
2022-08-25T11:19:07.631Z,6.57
2022-08-25T11:22:13.038Z,6.88
2022-08-25T11:24:58.450Z,7.03
2022-08-25T11:27:35.773Z,6.35
2022-08-25T11:30:09.526Z,6.18
2022-08-25T11:32:44.246Z,8.27
2022-08-25T11:35:14.299Z,7.53
2022-08-25T11:38:23.367Z,6.40
2022-08-25T11:41:10.999Z,6.47
2022-08-25T11:44:02.765Z,6.75
2022-08-25T11:46:54.423Z,7.95
2022-08-25T11:49:37.528Z,7.85
2022-08-25T11:52:30.778Z,5.43
2022-08-25T11:55:12.705Z,6.25
2022-08-25T11:57:40.665Z,6.60
2022-08-25T12:00:34.877Z,6.45
2022-08-25T12:03:36.424Z,6.25
2022-08-25T12:06:28.209Z,6.40
2022-08-25T12:09:01.367Z,5.22
2022-08-25T12:11:55.157Z,6.20
2022-08-25T12:14:22.633Z,6.22
2022-08-25T12:16:56.756Z,6.50
2022-08-25T12:19:36.230Z,6.35
2022-08-25T12:22:03.206Z,6.60
2022-08-25T12:24:47.972Z,6.25
2022-08-25T12:27:43.192Z,7.53
2022-08-25T12:31:01.068Z,7.25
2022-08-25T12:33:46.812Z,9.27
2022-08-25T12:36:31.565Z,7.05
2022-08-25T12:39:24.571Z,6.78
2022-08-25T12:42:04.296Z,7.30
2022-08-25T12:44:44.182Z,7.90
2022-08-25T12:47:33.952Z,7.38
2022-08-25T12:50:38.302Z,9.60
2022-08-25T12:53:34.143Z,7.15
2022-08-25T12:56:10.408Z,7.45
2022-08-25T12:59:13.399Z,8.10
2022-08-25T13:01:51.060Z,8.52
2022-08-25T13:04:55.431Z,7.97
2022-08-25T13:07:22.405Z,9.75
2022-08-25T13:10:02.000Z,8.10
2022-08-25T13:12:55.388Z,7.78
2022-08-25T13:15:54.910Z,8.10
2022-08-25T13:18:27.939Z,10.82
2022-08-25T13:21:19.050Z,9.48
2022-08-25T13:23:50.534Z,8.50
2022-08-25T13:26:28.507Z,8.32
2022-08-25T13:28:59.026Z,7.93
2022-08-25T13:31:30.592Z,7.68
2022-08-25T13:34:05.390Z,7.70
2022-08-25T13:37:05.698Z,8.48
2022-08-25T13:39:55.005Z,8.85
2022-08-25T13:42:21.660Z,8.20
2022-08-25T13:44:56.459Z,7.60
2022-08-25T13:47:45.148Z,7.28
2022-08-25T13:50:31.034Z,5.55
2022-08-25T13:53:11.586Z,7.97
2022-08-25T13:55:53.429Z,8.50
2022-08-25T13:58:38.709Z,7.45
2022-08-25T14:01:35.684Z,9.10
2022-08-25T14:04:26.797Z,7.82
2022-08-25T14:07:14.209Z,7.82
2022-08-25T14:10:05.075Z,10.82
2022-08-25T14:13:10.882Z,6.40
2022-08-25T14:15:38.787Z,7.25
2022-08-25T14:18:08.899Z,6.57
2022-08-25T14:20:37.539Z,5.60
2022-08-25T14:23:18.766Z,6.47
2022-08-25T14:25:47.400Z,5.30
2022-08-25T14:28:18.317Z,6.00
2022-08-25T14:30:59.259Z,6.63
2022-08-25T14:33:56.565Z,6.45
2022-08-25T14:36:24.009Z,5.88
2022-08-25T14:38:54.538Z,5.32
2022-08-25T14:41:23.998Z,7.75
2022-08-25T14:43:50.945Z,6.00
2022-08-25T14:46:24.757Z,7.65
2022-08-25T14:49:07.306Z,6.53
2022-08-25T14:51:36.174Z,5.85
2022-08-25T14:54:07.327Z,6.25
2022-08-25T14:56:36.278Z,5.93
2022-08-25T14:59:03.267Z,6.25
2022-08-25T15:01:32.407Z,6.20
2022-08-25T15:04:19.567Z,6.50
2022-08-25T15:06:48.183Z,7.00
2022-08-25T15:09:17.355Z,6.90
2022-08-25T15:11:52.334Z,7.60
2022-08-25T15:14:28.417Z,6.35
2022-08-25T15:16:57.312Z,9.27
2022-08-25T15:19:27.012Z,7.55
2022-08-25T15:21:58.093Z,8.18
2022-08-25T15:24:27.527Z,5.85
2022-08-25T15:27:01.303Z,8.40
2022-08-25T15:29:30.845Z,8.18
2022-08-25T15:32:00.206Z,6.60
2022-08-25T15:34:27.456Z,7.00
2022-08-25T15:36:56.647Z,7.60
2022-08-25T15:39:23.713Z,8.30
2022-08-25T15:41:52.581Z,7.13
2022-08-25T15:44:20.513Z,6.18
2022-08-25T15:46:49.767Z,6.00
2022-08-25T15:49:23.529Z,7.03
2022-08-25T15:51:53.119Z,9.15
2022-08-25T15:54:26.730Z,7.18
2022-08-25T15:56:55.155Z,7.00
2022-08-25T15:59:22.129Z,7.75
2022-08-25T16:01:53.827Z,6.82
2022-08-25T16:04:25.381Z,7.10
2022-08-25T16:06:54.281Z,12.23
2022-08-25T16:09:23.528Z,8.38
2022-08-25T16:11:55.838Z,7.82
2022-08-25T16:14:24.038Z,9.13
2022-08-25T16:16:58.227Z,7.82
2022-08-25T16:19:28.321Z,7.45
2022-08-25T16:21:55.439Z,6.93
2022-08-25T16:24:22.343Z,10.70
2022-08-25T16:26:50.252Z,10.10
2022-08-25T16:29:19.970Z,7.28
2022-08-25T16:31:53.184Z,7.80
2022-08-25T16:34:22.351Z,7.68
2022-08-25T16:36:52.897Z,12.82
2022-08-25T16:39:21.498Z,9.23
2022-08-25T16:41:51.987Z,6.97
2022-08-25T16:44:22.771Z,7.72
2022-08-25T16:46:54.216Z,8.77
2022-08-25T16:49:24.447Z,8.75
2022-08-25T16:51:57.315Z,10.40
2022-08-25T16:54:44.149Z,7.57
2022-08-25T16:57:11.567Z,11.27
2022-08-25T16:59:38.432Z,9.23
2022-08-25T17:02:06.600Z,11.18
2022-08-25T17:04:33.727Z,7.25
2022-08-25T17:07:01.830Z,10.85
2022-08-25T17:09:30.247Z,8.60
2022-08-25T17:11:57.586Z,9.18
2022-08-25T17:14:25.869Z,9.43
2022-08-25T17:16:55.219Z,8.93
2022-08-25T17:19:23.661Z,12.25
2022-08-25T17:21:51.156Z,9.40
2022-08-25T17:24:18.496Z,11.23
2022-08-25T17:26:49.935Z,9.15
2022-08-25T17:29:21.406Z,8.73
2022-08-25T17:31:49.266Z,8.77
2022-08-25T17:34:23.253Z,9.57
2022-08-25T17:36:50.908Z,11.35
2022-08-25T17:39:19.853Z,9.88
2022-08-25T17:41:49.967Z,7.32
2022-08-25T17:44:18.266Z,7.97
2022-08-25T17:46:47.181Z,8.48
2022-08-25T17:49:18.035Z,8.13
2022-08-25T17:51:45.558Z,7.43
2022-08-25T17:54:12.792Z,10.48
2022-08-25T17:56:40.015Z,8.20
2022-08-25T17:59:07.038Z,8.20
2022-08-25T18:01:40.442Z,8.48
2022-08-25T18:04:14.262Z,8.93
2022-08-25T18:06:46.415Z,7.45
2022-08-25T18:09:13.820Z,8.45
2022-08-25T18:11:41.076Z,8.63
2022-08-25T18:14:10.706Z,10.68
2022-08-25T18:16:39.018Z,8.73
2022-08-25T18:19:09.450Z,8.02
2022-08-25T18:21:37.045Z,9.10
2022-08-25T18:24:05.257Z,11.15
2022-08-25T18:26:33.562Z,8.40
2022-08-25T18:29:02.662Z,11.65
2022-08-25T18:31:29.926Z,9.90
2022-08-25T18:33:57.553Z,9.32
2022-08-25T18:36:24.576Z,9.02
2022-08-25T18:39:11.176Z,9.50
2022-08-25T18:41:42.521Z,9.93
2022-08-25T18:44:11.010Z,10.38
2022-08-25T18:46:39.539Z,8.90
2022-08-25T18:49:06.687Z,11.90
2022-08-25T18:51:36.316Z,12.57
2022-08-25T18:54:04.698Z,9.48
2022-08-25T18:56:31.774Z,10.57
2022-08-25T18:58:59.957Z,9.75
2022-08-25T19:01:27.325Z,9.52
2022-08-25T19:03:56.446Z,13.63
2022-08-25T19:06:24.473Z,10.68
2022-08-25T19:08:51.954Z,11.18
2022-08-25T19:11:22.176Z,9.77
2022-08-25T19:13:50.505Z,10.20
2022-08-25T19:16:30.104Z,10.40
2022-08-25T19:18:57.738Z,10.30
2022-08-25T19:21:25.438Z,16.20
2022-08-25T19:23:53.621Z,10.63
2022-08-25T19:26:21.930Z,11.20
2022-08-25T19:28:49.941Z,10.27
2022-08-25T19:31:21.848Z,10.60
2022-08-25T19:33:52.598Z,11.05
2022-08-25T19:36:23.678Z,15.98
2022-08-25T19:38:58.677Z,11.10
2022-08-25T19:41:27.459Z,12.25
2022-08-25T19:43:57.456Z,10.52
2022-08-25T19:46:32.639Z,11.63
2022-08-25T19:49:08.090Z,11.13
2022-08-25T19:51:44.377Z,11.20
2022-08-25T19:54:13.763Z,12.48
2022-08-25T19:56:53.646Z,12.60
2022-08-25T19:59:40.659Z,14.98
2022-08-25T20:02:15.876Z,16.02
2022-08-25T20:04:49.519Z,12.18
2022-08-25T20:07:23.753Z,12.65
2022-08-25T20:09:52.020Z,12.52
2022-08-25T20:12:20.871Z,15.85
2022-08-25T20:14:49.153Z,12.57
2022-08-25T20:17:24.805Z,12.10
2022-08-25T20:19:58.701Z,12.05
2022-08-25T20:22:28.526Z,11.02
2022-08-25T20:24:58.524Z,11.55
2022-08-25T20:27:35.194Z,11.20
2022-08-25T20:30:04.719Z,12.35
2022-08-25T20:32:33.720Z,11.90
2022-08-25T20:35:01.920Z,12.07
2022-08-25T20:37:29.146Z,13.27
2022-08-25T20:39:56.136Z,16.65
2022-08-25T20:42:23.216Z,12.00
2022-08-25T20:44:50.457Z,12.38
2022-08-25T20:47:20.666Z,14.25
2022-08-25T20:49:48.952Z,15.23
2022-08-25T20:52:18.432Z,13.57
2022-08-25T20:54:49.473Z,22.88
2022-08-25T20:57:25.817Z,15.85
2022-08-25T20:59:54.000Z,13.38
2022-08-25T21:02:21.327Z,13.15
2022-08-25T21:04:49.021Z,14.23
2022-08-25T21:07:18.519Z,16.63
2022-08-25T21:09:45.792Z,15.32
2022-08-25T21:12:12.903Z,13.45
2022-08-25T21:14:41.658Z,17.92
2022-08-25T21:17:12.644Z,17.38
2022-08-25T21:19:41.751Z,16.85
2022-08-25T21:22:09.747Z,12.55
2022-08-25T21:24:38.459Z,12.80
2022-08-25T21:27:05.463Z,17.85
2022-08-25T21:29:33.050Z,12.52
2022-08-25T21:32:00.096Z,13.43
2022-08-25T21:34:28.842Z,17.73
2022-08-25T21:36:58.002Z,12.02
2022-08-25T21:39:27.501Z,12.93
2022-08-25T21:41:56.548Z,12.50
2022-08-25T21:44:24.071Z,13.57
2022-08-25T21:46:54.427Z,14.10
2022-08-25T21:49:23.149Z,15.40
2022-08-25T21:51:59.353Z,13.80
2022-08-25T21:54:28.722Z,13.80
2022-08-25T21:56:59.858Z,14.68
2022-08-25T21:59:36.645Z,12.52
2022-08-25T22:02:10.013Z,11.82
2022-08-25T22:04:39.415Z,13.75
2022-08-25T22:07:07.562Z,12.25
2022-08-25T22:09:35.535Z,12.07
2022-08-25T22:12:03.609Z,12.23
2022-08-25T22:14:30.776Z,12.63
2022-08-25T22:16:57.775Z,14.10
2022-08-25T22:19:24.891Z,11.65
2022-08-25T22:21:52.970Z,13.52
2022-08-25T22:24:20.685Z,15.10
2022-08-25T22:26:48.437Z,13.60
2022-08-25T22:29:24.823Z,13.00
2022-08-25T22:31:53.947Z,13.90
2022-08-25T22:34:30.733Z,13.98
2022-08-25T22:37:00.092Z,16.45
2022-08-25T22:39:27.472Z,12.80
2022-08-25T22:41:54.331Z,13.32
2022-08-25T22:44:23.278Z,13.75
2022-08-25T22:46:50.361Z,13.30
2022-08-25T22:49:17.455Z,13.55
2022-08-25T22:51:44.422Z,13.10
2022-08-25T22:54:15.154Z,16.30
2022-08-25T22:56:42.571Z,12.85
2022-08-25T22:59:13.186Z,14.32
2022-08-25T23:01:42.649Z,13.75
2022-08-25T23:04:10.818Z,16.88
2022-08-25T23:06:38.453Z,12.63
2022-08-25T23:09:07.317Z,15.25
2022-08-25T23:11:35.719Z,14.65
2022-08-25T23:14:10.055Z,13.30
2022-08-25T23:16:38.958Z,18.33
2022-08-25T23:19:06.363Z,13.95
2022-08-25T23:21:52.732Z,14.82
2022-08-25T23:24:29.449Z,13.48
2022-08-25T23:26:59.320Z,15.73
2022-08-25T23:29:27.636Z,16.13
2022-08-25T23:31:54.995Z,13.90
2022-08-25T23:34:22.275Z,13.45
2022-08-25T23:36:49.265Z,13.93
2022-08-25T23:39:18.716Z,15.32
2022-08-25T23:41:49.410Z,13.30
2022-08-25T23:44:17.429Z,16.23
2022-08-25T23:46:45.453Z,15.93
2022-08-25T23:49:15.166Z,13.90
2022-08-25T23:51:46.904Z,15.23
2022-08-25T23:54:13.845Z,15.05
2022-08-25T23:56:44.645Z,15.02
2022-08-25T23:59:24.132Z,16.38
